Time;durP1;ratioP1;P1;durP2;ratioP2;P2;SDS_P1;SDS_P2;PMS_P1;PMS_P2;Temp;Humidity;BMP_temperature;BMP_pressure;BME280_temperature;BME280_humidity;BME280_pressure;Samples;Min_cycle;Max_cycle;Signal;HPM_P1;HPM_P2
2023/04/21 00:00:43;;;;;;;28.00;17.73;;;8.20;99.90;;;;;;4947063;28;19933;-65
2023/04/21 00:03:09;;;;;;;27.92;18.55;;;8.10;99.90;;;;;;4948888;28;20104;-64
2023/04/21 00:05:35;;;;;;;27.80;18.30;;;8.20;99.90;;;;;;4924335;28;20046;-65
2023/04/21 00:08:00;;;;;;;27.42;17.80;;;8.20;99.90;;;;;;4943345;28;20043;-65
2023/04/21 00:10:26;;;;;;;27.73;18.30;;;8.20;99.90;;;;;;4952844;28;20954;-66
2023/04/21 00:12:52;;;;;;;28.33;18.85;;;8.20;99.90;;;;;;4948750;28;20038;-64
2023/04/21 00:15:17;;;;;;;28.17;18.65;;;8.20;99.90;;;;;;4948289;28;20038;-66
2023/04/21 00:17:43;;;;;;;30.17;18.45;;;8.20;99.90;;;;;;4935660;28;20319;-65
2023/04/21 00:20:09;;;;;;;28.45;17.92;;;8.20;99.90;;;;;;4952205;28;20046;-64
2023/04/21 00:22:35;;;;;;;27.20;17.17;;;8.20;99.90;;;;;;4970073;28;20052;-64
2023/04/21 00:25:02;;;;;;;29.75;18.10;;;8.20;99.90;;;;;;4951434;28;20038;-65
2023/04/21 00:27:27;;;;;;;27.45;17.73;;;8.20;99.90;;;;;;4951616;28;20055;-65
2023/04/21 00:29:53;;;;;;;28.33;17.23;;;8.10;99.90;;;;;;4953422;28;20050;-65
2023/04/21 00:32:19;;;;;;;31.27;18.58;;;8.10;99.90;;;;;;4938265;28;20125;-65
2023/04/21 00:34:44;;;;;;;33.85;18.90;;;8.00;99.90;;;;;;4957679;28;20051;-66
2023/04/21 00:37:10;;;;;;;26.33;18.20;;;8.10;99.90;;;;;;4970471;28;20061;-64
2023/04/21 00:39:36;;;;;;;29.88;18.08;;;8.10;99.90;;;;;;4952767;28;20046;-65
2023/04/21 00:42:01;;;;;;;27.95;17.70;;;8.00;99.90;;;;;;4955423;28;20046;-65
2023/04/21 00:44:27;;;;;;;26.05;18.02;;;8.00;99.90;;;;;;4938037;28;20088;-63
2023/04/21 00:46:53;;;;;;;27.60;18.48;;;8.00;99.90;;;;;;4946118;28;20110;-65
2023/04/21 00:49:18;;;;;;;27.15;18.60;;;8.00;99.90;;;;;;4953027;28;20049;-64
2023/04/21 00:51:44;;;;;;;25.33;17.77;;;7.90;99.90;;;;;;4974936;28;20133;-65
2023/04/21 00:54:12;;;;;;;35.55;18.70;;;7.90;99.90;;;;;;4950994;28;21018;-65
2023/04/21 00:56:38;;;;;;;28.13;19.05;;;7.90;99.90;;;;;;4953973;28;20139;-65
2023/04/21 00:59:04;;;;;;;32.13;18.95;;;7.80;99.90;;;;;;4938374;28;20684;-66
2023/04/21 01:01:31;;;;;;;27.95;18.25;;;7.90;99.90;;;;;;4950250;28;20080;-65
2023/04/21 01:04:01;;;;;;;32.80;18.67;;;7.80;99.90;;;;;;4946790;28;20188;-64
2023/04/21 01:06:31;;;;;;;33.58;18.90;;;7.80;99.90;;;;;;4963908;28;20045;-65
2023/04/21 01:08:57;;;;;;;32.28;18.50;;;7.80;99.90;;;;;;4938754;28;20746;-65
2023/04/21 01:11:23;;;;;;;32.83;18.77;;;7.70;99.90;;;;;;4952342;28;21796;-65
2023/04/21 01:13:53;;;;;;;28.63;18.88;;;7.70;99.90;;;;;;4938260;28;21806;-66
2023/04/21 01:16:20;;;;;;;32.65;19.70;;;7.60;99.90;;;;;;4950570;28;20038;-65
2023/04/21 01:18:46;;;;;;;34.55;19.50;;;7.70;99.90;;;;;;4954891;28;20134;-65
2023/04/21 01:21:13;;;;;;;33.25;19.60;;;7.70;99.90;;;;;;4955749;28;20554;-65
2023/04/21 01:23:42;;;;;;;32.15;19.55;;;7.60;99.90;;;;;;4956583;28;20108;-64
2023/04/21 01:26:08;;;;;;;30.38;19.65;;;7.60;99.90;;;;;;4940015;28;20927;-64
2023/04/21 01:28:35;;;;;;;31.45;19.35;;;7.60;99.90;;;;;;4955673;28;20042;-65
2023/04/21 01:31:01;;;;;;;30.88;19.98;;;7.60;99.90;;;;;;4956515;28;20101;-65
2023/04/21 01:33:27;;;;;;;27.13;18.60;;;7.60;99.90;;;;;;4954839;28;20065;-66
2023/04/21 01:35:54;;;;;;;32.97;19.10;;;7.60;99.90;;;;;;4951590;28;20034;-65
2023/04/21 01:38:20;;;;;;;30.10;19.02;;;7.60;99.90;;;;;;4952384;28;21211;-66
2023/04/21 01:40:49;;;;;;;29.50;19.65;;;7.60;99.90;;;;;;4955888;28;20031;-66
2023/04/21 01:43:17;;;;;;;34.65;19.80;;;7.60;99.90;;;;;;4951675;28;20050;-66
2023/04/21 01:45:43;;;;;;;30.08;19.50;;;7.60;99.90;;;;;;4971911;28;20039;-65
2023/04/21 01:48:09;;;;;;;34.28;19.52;;;7.50;99.90;;;;;;4953846;28;20065;-65
2023/04/21 01:50:35;;;;;;;36.30;19.10;;;7.60;99.90;;;;;;4944753;28;20038;-65
2023/04/21 01:53:00;;;;;;;30.65;18.00;;;7.50;99.90;;;;;;4971561;28;20762;-65
2023/04/21 01:55:26;;;;;;;29.88;19.65;;;7.60;99.90;;;;;;4939577;28;20094;-65
2023/04/21 01:57:52;;;;;;;34.25;19.48;;;7.60;99.90;;;;;;4950608;28;20293;-64
2023/04/21 02:00:18;;;;;;;28.33;18.65;;;7.60;99.90;;;;;;4952249;28;20443;-66
2023/04/21 02:02:43;;;;;;;30.90;19.80;;;7.50;99.90;;;;;;4936443;28;20097;-65
2023/04/21 02:05:09;;;;;;;33.15;19.13;;;7.50;99.90;;;;;;4952778;28;20386;-66
2023/04/21 02:07:35;;;;;;;25.98;18.98;;;7.50;99.90;;;;;;4944023;28;20042;-65
2023/04/21 02:10:01;;;;;;;32.15;18.58;;;7.50;99.90;;;;;;4936926;28;20536;-66
2023/04/21 02:12:26;;;;;;;30.27;19.95;;;7.50;99.90;;;;;;4954932;28;20043;-66
2023/04/21 02:14:52;;;;;;;30.80;19.52;;;7.50;99.90;;;;;;4952424;28;20046;-64
2023/04/21 02:17:18;;;;;;;30.23;19.77;;;7.50;99.90;;;;;;4953766;28;20046;-65
2023/04/21 02:19:44;;;;;;;29.13;19.42;;;7.50;99.90;;;;;;4953493;28;20050;-65
2023/04/21 02:22:11;;;;;;;30.73;20.08;;;7.50;99.90;;;;;;4948295;28;20638;-65
2023/04/21 02:24:37;;;;;;;30.45;20.20;;;7.60;99.90;;;;;;4954020;28;20061;-66
2023/04/21 02:27:03;;;;;;;29.83;19.92;;;7.50;99.90;;;;;;4955152;28;20051;-65
2023/04/21 02:29:29;;;;;;;28.73;19.67;;;7.50;99.90;;;;;;4960034;28;20164;-65
2023/04/21 02:31:55;;;;;;;28.55;19.50;;;7.50;99.90;;;;;;4955409;28;20047;-65
2023/04/21 02:34:21;;;;;;;34.78;21.10;;;7.50;99.90;;;;;;4955926;28;20050;-65
2023/04/21 02:36:46;;;;;;;36.83;19.42;;;7.50;99.90;;;;;;4952965;28;20501;-64
2023/04/21 02:39:12;;;;;;;30.50;19.05;;;7.50;99.90;;;;;;4951600;28;20089;-66
2023/04/21 02:41:41;;;;;;;30.23;19.85;;;7.50;99.90;;;;;;4937921;28;20050;-66
2023/04/21 02:44:07;;;;;;;30.63;19.25;;;7.50;99.90;;;;;;4954639;28;20054;-65
2023/04/21 02:46:32;;;;;;;33.65;20.13;;;7.50;99.90;;;;;;4954329;28;20046;-64
2023/04/21 02:48:58;;;;;;;33.15;19.83;;;7.40;99.90;;;;;;4954590;28;20497;-65
2023/04/21 02:51:24;;;;;;;34.60;19.90;;;7.40;99.90;;;;;;4952973;28;20046;-65
2023/04/21 02:53:50;;;;;;;30.58;18.90;;;7.50;99.90;;;;;;4951717;28;20042;-65
2023/04/21 02:56:16;;;;;;;32.60;19.13;;;7.50;99.90;;;;;;4967059;28;20057;-66
2023/04/21 02:58:41;;;;;;;38.28;20.00;;;7.50;99.90;;;;;;4954175;28;20049;-66
2023/04/21 03:01:07;;;;;;;32.45;19.20;;;7.50;99.90;;;;;;4941976;28;20085;-65
2023/04/21 03:03:33;;;;;;;30.63;19.58;;;7.50;99.90;;;;;;4933649;28;20382;-66
2023/04/21 03:06:03;;;;;;;33.20;19.75;;;7.40;99.90;;;;;;4938322;28;20129;-64
2023/04/21 03:08:30;;;;;;;35.55;20.15;;;7.40;99.90;;;;;;4951195;28;20068;-65
2023/04/21 03:10:56;;;;;;;31.52;19.65;;;7.50;99.90;;;;;;4969997;28;20044;-65
2023/04/21 03:13:23;;;;;;;32.08;19.23;;;7.40;99.90;;;;;;4944662;28;20445;-65
2023/04/21 03:15:50;;;;;;;31.58;19.80;;;7.50;99.90;;;;;;4951512;28;20043;-65
2023/04/21 03:18:16;;;;;;;35.70;19.67;;;7.40;99.90;;;;;;4946754;28;20057;-64
2023/04/21 03:20:42;;;;;;;27.88;19.48;;;7.40;99.90;;;;;;4951188;28;20035;-66
2023/04/21 03:23:08;;;;;;;30.67;19.25;;;7.40;99.90;;;;;;4952718;28;20043;-65
2023/04/21 03:25:34;;;;;;;32.28;18.75;;;7.40;99.90;;;;;;4939763;28;20166;-66
2023/04/21 03:27:59;;;;;;;31.45;18.88;;;7.30;99.90;;;;;;4957120;28;20070;-65
2023/04/21 03:30:25;;;;;;;34.78;18.98;;;7.40;99.90;;;;;;4951538;28;20190;-66
2023/04/21 03:32:51;;;;;;;30.58;19.58;;;7.30;99.90;;;;;;4954033;28;20053;-65
2023/04/21 03:35:17;;;;;;;31.25;18.08;;;7.30;99.90;;;;;;4925539;28;20046;-65
2023/04/21 03:37:43;;;;;;;27.75;17.67;;;7.30;99.90;;;;;;4938401;28;20177;-66
2023/04/21 03:40:09;;;;;;;24.55;17.75;;;7.30;99.90;;;;;;4939427;28;20043;-65
2023/04/21 03:42:36;;;;;;;30.88;17.88;;;7.30;99.90;;;;;;4944361;28;20051;-65
2023/04/21 03:45:05;;;;;;;31.15;18.15;;;7.30;99.90;;;;;;4949196;28;20048;-65
2023/04/21 03:47:31;;;;;;;24.10;16.83;;;7.30;99.90;;;;;;4949257;28;20050;-66
2023/04/21 03:49:57;;;;;;;32.75;18.02;;;7.40;99.90;;;;;;4955681;28;20408;-66
2023/04/21 03:52:23;;;;;;;25.67;16.48;;;7.40;99.90;;;;;;4959122;28;20050;-65
2023/04/21 03:54:49;;;;;;;31.27;17.75;;;7.40;99.90;;;;;;4940978;28;20075;-65
2023/04/21 03:57:15;;;;;;;30.67;17.38;;;7.40;99.90;;;;;;4951388;28;20050;-65
2023/04/21 03:59:41;;;;;;;25.55;15.52;;;7.40;99.90;;;;;;4950171;28;20128;-65
2023/04/21 04:02:07;;;;;;;34.28;17.10;;;7.50;99.90;;;;;;4953487;28;20523;-65
2023/04/21 04:04:33;;;;;;;26.98;16.60;;;7.50;99.90;;;;;;4949284;28;20042;-64
2023/04/21 04:06:59;;;;;;;26.40;16.60;;;7.50;99.90;;;;;;4946822;28;20125;-65
2023/04/21 04:09:25;;;;;;;25.52;15.50;;;7.60;99.90;;;;;;4961022;28;20128;-66
2023/04/21 04:11:50;;;;;;;23.60;15.73;;;7.60;99.90;;;;;;4960456;28;20042;-65
2023/04/21 04:14:16;;;;;;;24.88;15.95;;;7.60;99.90;;;;;;4954865;28;20077;-64
2023/04/21 04:16:42;;;;;;;27.55;16.23;;;7.60;99.90;;;;;;4960269;28;20046;-64
2023/04/21 04:19:08;;;;;;;24.27;16.13;;;7.60;99.90;;;;;;4953587;28;20042;-65
2023/04/21 04:21:33;;;;;;;28.70;16.52;;;7.60;99.90;;;;;;4962353;28;20034;-65
2023/04/21 04:24:01;;;;;;;26.02;15.70;;;7.60;99.90;;;;;;4952724;28;20044;-65
2023/04/21 04:26:28;;;;;;;26.88;15.32;;;7.60;99.90;;;;;;4955370;28;20526;-64
2023/04/21 04:28:55;;;;;;;22.38;15.07;;;7.70;99.90;;;;;;4956268;28;20049;-65
2023/04/21 04:31:24;;;;;;;29.17;15.25;;;7.70;99.90;;;;;;4955258;28;20047;-64
2023/04/21 04:33:50;;;;;;;26.50;15.32;;;7.70;99.90;;;;;;4949749;28;20105;-64
2023/04/21 04:36:16;;;;;;;23.10;14.55;;;7.70;99.90;;;;;;4951453;28;20061;-65
2023/04/21 04:38:42;;;;;;;25.25;14.75;;;7.70;99.90;;;;;;4952988;28;20050;-66
2023/04/21 04:41:08;;;;;;;24.75;15.07;;;7.80;99.90;;;;;;4944515;28;20398;-65
2023/04/21 04:43:38;;;;;;;26.83;15.05;;;7.80;99.90;;;;;;4959650;28;20042;-64
2023/04/21 04:46:05;;;;;;;20.42;13.88;;;7.80;99.90;;;;;;4954971;28;20038;-64
2023/04/21 04:48:31;;;;;;;26.48;14.75;;;7.80;99.90;;;;;;4952276;28;20412;-65
2023/04/21 04:50:56;;;;;;;20.42;13.38;;;7.90;99.90;;;;;;4953635;28;20042;-64
2023/04/21 04:53:22;;;;;;;25.38;13.85;;;7.90;99.90;;;;;;4951180;28;20582;-65
2023/04/21 04:55:48;;;;;;;27.60;14.02;;;7.90;99.90;;;;;;4954753;28;20042;-65
2023/04/21 04:58:13;;;;;;;24.40;13.65;;;7.90;99.90;;;;;;4948929;28;20401;-67
2023/04/21 05:00:39;;;;;;;26.67;14.50;;;7.90;99.90;;;;;;4957991;28;20054;-65
2023/04/21 05:03:05;;;;;;;23.92;14.25;;;7.90;99.90;;;;;;4948000;28;20476;-64
2023/04/21 05:05:31;;;;;;;22.50;13.85;;;8.00;99.90;;;;;;4944644;28;20034;-64
2023/04/21 05:07:57;;;;;;;21.55;13.73;;;8.00;99.90;;;;;;4953831;28;20074;-66
2023/04/21 05:10:23;;;;;;;23.60;14.02;;;8.10;99.90;;;;;;4954799;28;20401;-66
2023/04/21 05:12:49;;;;;;;22.60;13.68;;;8.10;99.90;;;;;;4941029;28;20120;-65
2023/04/21 05:15:17;;;;;;;25.00;14.27;;;8.10;99.90;;;;;;4964643;28;20046;-64
2023/04/21 05:17:42;;;;;;;20.77;13.32;;;8.10;99.90;;;;;;4947749;28;20157;-65
2023/04/21 05:20:08;;;;;;;26.88;13.52;;;8.10;99.90;;;;;;4950707;28;20837;-65
2023/04/21 05:22:37;;;;;;;21.20;12.95;;;8.20;99.90;;;;;;4951288;28;20057;-64
2023/04/21 05:25:04;;;;;;;24.20;14.05;;;8.20;99.90;;;;;;4955348;28;20409;-64
2023/04/21 05:27:35;;;;;;;23.33;13.63;;;8.20;99.90;;;;;;4942851;28;20058;-65
2023/04/21 05:30:01;;;;;;;20.05;13.23;;;8.20;99.90;;;;;;4952108;28;20050;-66
2023/04/21 05:32:28;;;;;;;24.92;12.90;;;8.30;99.90;;;;;;4954122;28;20042;-64
2023/04/21 05:34:53;;;;;;;19.33;12.35;;;8.30;99.90;;;;;;4950243;28;20508;-65
2023/04/21 05:37:19;;;;;;;19.00;13.15;;;8.40;99.90;;;;;;4946919;28;20202;-67
2023/04/21 05:39:45;;;;;;;27.27;12.57;;;8.40;99.90;;;;;;4940662;28;20186;-65
2023/04/21 05:42:11;;;;;;;23.48;11.95;;;8.40;99.90;;;;;;4967896;28;20050;-64
2023/04/21 05:44:37;;;;;;;20.55;11.82;;;8.50;99.90;;;;;;4952724;28;20031;-65
2023/04/21 05:47:06;;;;;;;19.70;12.43;;;8.50;99.90;;;;;;4951026;28;21106;-64
2023/04/21 05:49:32;;;;;;;23.40;13.23;;;8.50;99.90;;;;;;4941432;28;20042;-65
2023/04/21 05:51:58;;;;;;;21.90;12.65;;;8.60;99.90;;;;;;4955777;28;20129;-64
2023/04/21 05:54:24;;;;;;;24.25;11.45;;;8.60;99.90;;;;;;4955541;28;20378;-65
2023/04/21 05:56:50;;;;;;;20.30;12.77;;;8.70;99.90;;;;;;4946809;28;20834;-64
2023/04/21 05:59:16;;;;;;;18.80;12.10;;;8.70;99.90;;;;;;4945438;28;20050;-65
2023/04/21 06:01:42;;;;;;;22.98;12.73;;;8.70;99.90;;;;;;4960139;28;20046;-65
2023/04/21 06:04:08;;;;;;;20.80;12.60;;;8.70;99.90;;;;;;4957916;28;20038;-65
2023/04/21 06:06:34;;;;;;;20.80;12.75;;;8.80;99.90;;;;;;4949163;28;20049;-65
2023/04/21 06:09:00;;;;;;;23.17;12.40;;;8.80;99.90;;;;;;4949277;28;20111;-65
2023/04/21 06:11:26;;;;;;;19.80;12.30;;;8.90;99.90;;;;;;4951106;28;20054;-64
2023/04/21 06:13:53;;;;;;;18.48;11.70;;;8.90;99.90;;;;;;4956290;28;21070;-65
2023/04/21 06:16:19;;;;;;;23.73;11.88;;;9.00;99.90;;;;;;4953986;28;20118;-65
2023/04/21 06:18:45;;;;;;;26.63;12.13;;;9.00;99.90;;;;;;4916114;28;21100;-65
2023/04/21 06:21:11;;;;;;;23.23;12.52;;;9.00;99.90;;;;;;4943192;28;20046;-65
2023/04/21 06:23:36;;;;;;;23.75;11.93;;;9.10;99.90;;;;;;4955193;28;20489;-64
2023/04/21 06:26:05;;;;;;;20.77;12.18;;;9.10;99.90;;;;;;4976153;28;20042;-64
2023/04/21 06:28:35;;;;;;;19.55;12.13;;;9.10;99.90;;;;;;4958465;28;20056;-65
2023/04/21 06:31:02;;;;;;;29.85;13.43;;;9.20;99.90;;;;;;4953145;28;20050;-64
2023/04/21 06:33:29;;;;;;;19.05;11.98;;;9.30;99.90;;;;;;4940238;28;20053;-65
2023/04/21 06:35:54;;;;;;;23.92;12.27;;;9.30;99.90;;;;;;4957356;28;20050;-65
2023/04/21 06:38:21;;;;;;;29.98;12.02;;;9.40;99.90;;;;;;4950386;28;20057;-65
2023/04/21 06:40:46;;;;;;;21.65;11.63;;;9.40;99.90;;;;;;4945523;28;20500;-64
2023/04/21 06:43:15;;;;;;;23.98;12.35;;;9.50;99.90;;;;;;4930799;28;20052;-64
2023/04/21 06:45:41;;;;;;;25.73;12.52;;;9.60;99.90;;;;;;4938706;28;20045;-65
2023/04/21 06:48:07;;;;;;;21.23;11.57;;;9.70;99.90;;;;;;4951486;28;20054;-65
2023/04/21 06:50:32;;;;;;;24.67;11.68;;;9.70;99.90;;;;;;4950352;28;20089;-65
2023/04/21 06:52:58;;;;;;;27.88;11.93;;;9.80;99.90;;;;;;4952665;28;20054;-65
2023/04/21 06:55:24;;;;;;;22.20;12.00;;;9.80;99.90;;;;;;4948382;28;20073;-65
2023/04/21 06:57:49;;;;;;;23.92;10.82;;;9.90;99.90;;;;;;4925431;28;20444;-65
2023/04/21 07:00:21;;;;;;;17.67;11.23;;;10.00;99.90;;;;;;4932206;28;20055;-65
2023/04/21 07:02:47;;;;;;;18.20;11.02;;;10.10;99.90;;;;;;4924446;28;20486;-64
2023/04/21 07:05:12;;;;;;;18.67;11.25;;;10.20;99.90;;;;;;4932858;28;20046;-65
2023/04/21 07:08:10;;;;;;;17.02;10.75;;;10.20;99.90;;;;;;4950805;28;20105;-64
2023/04/21 07:10:39;;;;;;;18.60;11.18;;;10.30;99.90;;;;;;4950471;28;20055;-64
2023/04/21 07:13:10;;;;;;;24.40;11.40;;;10.40;99.90;;;;;;4942127;28;20042;-65
2023/04/21 07:15:36;;;;;;;23.30;11.68;;;10.40;99.90;;;;;;4933072;28;20047;-65
2023/04/21 07:18:17;;;;;;;22.52;11.77;;;10.50;99.90;;;;;;4935368;28;20484;-65
2023/04/21 07:24:16;;;;;;;23.30;11.25;;;10.70;99.90;;;;;;4943660;28;20649;-65
2023/04/21 07:26:42;;;;;;;23.98;11.68;;;10.80;99.90;;;;;;4952237;28;20058;-65
2023/04/21 07:29:08;;;;;;;17.63;10.05;;;10.90;99.90;;;;;;4944495;28;20058;-65
2023/04/21 07:31:33;;;;;;;19.90;11.43;;;11.00;99.90;;;;;;4953702;28;20074;-65
2023/04/21 07:33:59;;;;;;;21.25;10.82;;;11.10;99.90;;;;;;4933561;28;20393;-65
2023/04/21 07:36:30;;;;;;;19.55;10.68;;;11.20;99.90;;;;;;4928991;28;20043;-64
2023/04/21 07:39:02;;;;;;;14.93;10.43;;;11.30;99.90;;;;;;4951719;28;24811;-64
2023/04/21 07:41:38;;;;;;;25.88;10.73;;;11.30;99.90;;;;;;4934980;28;20070;-64
2023/04/21 07:44:04;;;;;;;17.52;10.68;;;11.40;99.90;;;;;;4948840;28;20297;-64
2023/04/21 07:46:30;;;;;;;23.13;11.13;;;11.50;99.90;;;;;;4940450;28;20042;-65
2023/04/21 07:48:59;;;;;;;18.30;11.43;;;11.60;99.90;;;;;;4931340;28;25431;-64
2023/04/21 07:51:29;;;;;;;19.60;10.68;;;11.70;99.90;;;;;;4950146;28;20469;-65
2023/04/21 07:53:54;;;;;;;25.52;11.88;;;11.80;99.90;;;;;;4929335;28;20520;-65
2023/04/21 07:56:20;;;;;;;20.95;11.65;;;11.80;99.90;;;;;;4940971;28;20051;-64
2023/04/21 07:58:46;;;;;;;21.02;10.98;;;12.00;99.90;;;;;;4913341;28;20102;-65
2023/04/21 08:01:12;;;;;;;24.95;10.95;;;12.00;99.90;;;;;;4943574;28;20525;-65
2023/04/21 08:03:38;;;;;;;21.73;10.80;;;12.10;99.90;;;;;;4948160;28;20054;-65
2023/04/21 08:06:04;;;;;;;21.15;10.88;;;12.30;99.90;;;;;;4951670;28;20049;-65
2023/04/21 08:08:30;;;;;;;24.20;10.73;;;12.40;99.90;;;;;;4936711;28;20513;-64
2023/04/21 08:10:55;;;;;;;19.27;10.50;;;12.50;99.90;;;;;;4937755;28;20051;-65
2023/04/21 08:13:24;;;;;;;20.05;10.77;;;12.60;99.90;;;;;;4945936;28;20498;-64
2023/04/21 08:15:53;;;;;;;19.40;9.90;;;12.70;99.90;;;;;;4935165;28;20038;-64
2023/04/21 08:18:19;;;;;;;20.65;10.75;;;12.70;99.90;;;;;;4945186;28;20058;-65
2023/04/21 08:20:49;;;;;;;20.45;10.45;;;12.80;99.90;;;;;;4954659;28;20043;-64
2023/04/21 08:23:15;;;;;;;18.58;10.65;;;12.90;99.90;;;;;;4916042;28;20121;-65
2023/04/21 08:25:40;;;;;;;18.23;9.93;;;13.00;99.90;;;;;;4951653;28;20053;-65
2023/04/21 08:28:06;;;;;;;21.05;10.80;;;13.00;99.90;;;;;;4952813;28;20493;-65
2023/04/21 08:30:32;;;;;;;23.75;10.52;;;13.10;99.90;;;;;;4935379;28;20129;-64
2023/04/21 08:32:58;;;;;;;19.00;9.70;;;13.20;99.90;;;;;;4942860;28;20174;-64
2023/04/21 08:35:24;;;;;;;19.75;10.60;;;13.30;99.90;;;;;;4957628;28;20113;-65
2023/04/21 08:37:50;;;;;;;20.23;10.50;;;13.50;99.90;;;;;;4952149;28;20054;-64
2023/04/21 08:40:16;;;;;;;20.42;10.00;;;13.60;99.90;;;;;;4939041;28;20500;-65
2023/04/21 08:42:42;;;;;;;19.85;10.20;;;13.70;99.90;;;;;;4949263;28;20085;-65
2023/04/21 08:45:08;;;;;;;19.58;10.90;;;13.80;99.90;;;;;;4938667;28;20125;-65
2023/04/21 08:47:38;;;;;;;19.48;10.45;;;13.90;99.90;;;;;;4966779;28;20692;-64
2023/04/21 08:50:07;;;;;;;19.80;9.93;;;14.00;99.90;;;;;;4928260;28;20050;-64
2023/04/21 08:52:32;;;;;;;19.60;10.70;;;14.10;99.90;;;;;;4938922;28;20057;-65
2023/04/21 08:54:59;;;;;;;19.27;10.23;;;14.20;99.90;;;;;;4957877;28;20058;-64
2023/04/21 08:57:24;;;;;;;20.88;9.90;;;14.40;99.90;;;;;;4933485;28;20730;-64
2023/04/21 08:59:50;;;;;;;19.52;10.00;;;14.50;99.90;;;;;;4957073;28;20053;-64
2023/04/21 09:02:17;;;;;;;18.38;10.15;;;14.60;99.90;;;;;;4941982;28;20090;-64
2023/04/21 09:04:49;;;;;;;23.30;10.07;;;14.70;99.90;;;;;;4948739;28;22584;-64
2023/04/21 09:07:31;;;;;;;21.35;10.02;;;14.80;99.90;;;;;;4929108;28;20046;-65
2023/04/21 09:09:58;;;;;;;23.05;10.23;;;15.00;99.90;;;;;;4941482;28;20074;-65
2023/04/21 09:12:24;;;;;;;19.10;9.73;;;15.00;99.90;;;;;;4951852;28;20050;-65
2023/04/21 09:14:50;;;;;;;17.20;9.85;;;15.10;99.90;;;;;;4959459;28;20047;-64
2023/04/21 09:17:17;;;;;;;17.95;9.32;;;15.20;99.90;;;;;;4939153;28;20690;-65
2023/04/21 09:19:43;;;;;;;21.35;10.00;;;15.30;99.90;;;;;;4955343;28;20122;-65
2023/04/21 09:22:13;;;;;;;18.52;9.57;;;15.40;99.90;;;;;;4959910;28;20093;-65
2023/04/21 09:24:55;;;;;;;24.02;9.38;;;15.60;99.90;;;;;;4957696;28;20051;-65
2023/04/21 09:27:22;;;;;;;23.80;9.90;;;15.70;99.90;;;;;;4957457;28;20148;-64
2023/04/21 09:29:47;;;;;;;15.00;9.32;;;15.70;99.90;;;;;;4939220;28;20536;-64
2023/04/21 09:32:19;;;;;;;19.52;9.02;;;15.80;99.90;;;;;;4949262;28;20058;-64
2023/04/21 09:34:46;;;;;;;17.83;9.10;;;15.90;99.90;;;;;;4951860;28;20058;-64
2023/04/21 09:37:13;;;;;;;17.20;9.48;;;16.00;99.90;;;;;;4936358;28;20153;-65
2023/04/21 09:39:43;;;;;;;18.63;8.98;;;16.00;99.90;;;;;;4935744;28;20085;-65
2023/04/21 09:42:10;;;;;;;16.20;8.77;;;16.10;99.90;;;;;;4951185;28;20042;-65
2023/04/21 09:44:37;;;;;;;18.17;9.05;;;16.10;99.90;;;;;;4956118;28;20169;-65
2023/04/21 09:47:04;;;;;;;17.40;8.30;;;16.10;99.90;;;;;;4941072;28;20072;-64
2023/04/21 09:49:33;;;;;;;17.60;8.65;;;16.20;99.90;;;;;;4934882;28;20042;-64
2023/04/21 09:52:00;;;;;;;20.35;8.98;;;16.30;99.90;;;;;;4953621;28;20610;-64
2023/04/21 09:54:30;;;;;;;27.15;8.90;;;16.50;99.90;;;;;;4949486;28;20310;-65
2023/04/21 09:57:02;;;;;;;20.48;9.20;;;16.60;99.90;;;;;;4958674;28;20057;-65
2023/04/21 09:59:33;;;;;;;21.20;8.60;;;16.70;99.90;;;;;;4945553;28;20075;-64
2023/04/21 10:02:03;;;;;;;18.08;8.57;;;16.90;99.90;;;;;;4950962;28;20050;-64
2023/04/21 10:04:31;;;;;;;16.30;8.75;;;17.00;99.90;;;;;;4950313;28;20054;-64
2023/04/21 10:07:00;;;;;;;17.77;8.63;;;17.10;99.90;;;;;;4935969;28;20049;-64
2023/04/21 10:09:39;;;;;;;18.08;8.45;;;17.20;99.90;;;;;;4950110;28;20131;-64
2023/04/21 10:12:06;;;;;;;19.25;8.50;;;17.30;99.90;;;;;;4947294;28;20085;-65
2023/04/21 10:14:32;;;;;;;19.55;8.23;;;17.50;99.70;;;;;;4954605;28;22455;-65
2023/04/21 10:17:08;;;;;;;19.38;8.65;;;17.60;99.60;;;;;;4966539;28;20048;-64
2023/04/21 10:19:39;;;;;;;24.25;8.32;;;17.70;99.40;;;;;;4950636;28;20050;-64
2023/04/21 10:22:09;;;;;;;12.65;8.02;;;17.80;98.50;;;;;;4935470;28;20111;-64
2023/04/21 10:24:40;;;;;;;16.25;8.73;;;17.90;98.20;;;;;;4950463;28;20518;-64
2023/04/21 10:27:10;;;;;;;19.35;8.30;;;18.00;97.80;;;;;;4940092;28;21074;-64
2023/04/21 10:29:36;;;;;;;20.40;8.77;;;18.10;97.70;;;;;;4947859;28;20884;-64
2023/04/21 10:32:03;;;;;;;15.10;8.27;;;18.10;97.20;;;;;;4949521;28;20093;-64
2023/04/21 10:34:37;;;;;;;17.35;8.20;;;18.20;96.70;;;;;;4957744;28;20531;-64
2023/04/21 10:37:03;;;;;;;16.58;8.38;;;18.40;96.00;;;;;;4953579;28;20512;-64
2023/04/21 10:39:53;;;;;;;13.75;8.02;;;18.40;95.30;;;;;;4952779;28;20047;-64
2023/04/21 10:42:24;;;;;;;16.02;8.07;;;18.50;94.90;;;;;;4953392;28;20559;-64
2023/04/21 10:45:04;;;;;;;18.73;8.15;;;18.60;94.40;;;;;;4945691;28;20046;-65
2023/04/21 10:48:00;;;;;;;24.77;8.40;;;18.60;93.90;;;;;;4957108;28;20052;-65
2023/04/21 10:50:30;;;;;;;18.92;8.00;;;18.80;94.50;;;;;;4948947;28;20065;-65
2023/04/21 10:52:58;;;;;;;11.85;7.70;;;18.90;93.70;;;;;;4954315;28;20046;-65
2023/04/21 10:55:28;;;;;;;13.55;7.72;;;19.10;93.40;;;;;;4944058;28;20053;-65
2023/04/21 10:57:54;;;;;;;20.48;8.05;;;19.10;92.80;;;;;;4952844;28;20046;-66
2023/04/21 11:00:22;;;;;;;12.77;7.95;;;19.10;92.20;;;;;;4965468;28;20054;-64
2023/04/21 11:03:02;;;;;;;12.93;7.63;;;19.20;92.10;;;;;;4946676;28;20101;-64
2023/04/21 11:05:40;;;;;;;21.10;7.72;;;19.30;91.60;;;;;;4959423;28;20153;-64
2023/04/21 11:08:07;;;;;;;18.15;7.25;;;19.50;91.10;;;;;;4945830;28;20050;-64
2023/04/21 11:10:53;;;;;;;14.70;6.65;;;19.60;91.20;;;;;;4948050;28;20050;-64
2023/04/21 11:13:24;;;;;;;19.80;6.80;;;19.80;88.20;;;;;;4970035;28;20461;-65
2023/04/21 11:15:58;;;;;;;16.38;6.40;;;19.80;83.40;;;;;;4959017;28;20126;-64
2023/04/21 11:18:37;;;;;;;13.02;6.50;;;19.90;82.10;;;;;;4953552;28;20556;-64
2023/04/21 11:21:23;;;;;;;13.93;6.88;;;20.00;81.80;;;;;;4955841;28;21057;-64
2023/04/21 11:23:56;;;;;;;12.93;6.20;;;20.10;80.90;;;;;;4974648;28;20615;-65
2023/04/21 11:26:38;;;;;;;15.05;6.20;;;20.20;80.60;;;;;;4953753;28;20046;-64
2023/04/21 11:29:06;;;;;;;20.48;6.60;;;20.30;74.90;;;;;;4954069;28;20107;-65
2023/04/21 11:31:32;;;;;;;10.35;6.00;;;20.20;75.80;;;;;;4953069;28;20046;-64
2023/04/21 11:33:59;;;;;;;12.00;6.07;;;20.20;75.70;;;;;;4953791;28;20061;-64
2023/04/21 11:36:26;;;;;;;12.93;5.88;;;20.20;76.90;;;;;;4943814;28;20047;-65
2023/04/21 11:38:52;;;;;;;13.75;6.40;;;20.30;75.00;;;;;;4954750;28;20047;-64
2023/04/21 11:41:22;;;;;;;12.18;5.93;;;20.40;73.50;;;;;;4951407;28;20069;-64
2023/04/21 11:43:48;;;;;;;17.20;6.07;;;20.50;73.50;;;;;;4955633;28;20149;-64
2023/04/21 11:46:26;;;;;;;18.40;5.90;;;20.40;72.80;;;;;;4952283;28;20053;-64
2023/04/21 11:49:06;;;;;;;14.15;5.53;;;20.30;70.90;;;;;;4969663;28;20774;-64
2023/04/21 11:51:37;;;;;;;16.98;6.57;;;20.30;72.00;;;;;;4977143;28;20054;-65
2023/04/21 11:54:08;;;;;;;14.98;5.55;;;20.60;72.50;;;;;;4960830;28;20050;-65
2023/04/21 11:56:38;;;;;;;13.90;5.30;;;20.80;71.30;;;;;;4955235;28;20077;-64
2023/04/21 11:59:22;;;;;;;20.88;5.68;;;21.00;70.30;;;;;;4978127;28;20040;-64
2023/04/21 12:01:53;;;;;;;12.20;5.60;;;21.10;70.30;;;;;;4952703;28;20057;-65
2023/04/21 12:04:21;;;;;;;10.18;5.00;;;20.90;66.90;;;;;;4958371;28;20402;-64
2023/04/21 12:06:58;;;;;;;13.05;5.43;;;20.60;66.10;;;;;;4957013;28;20049;-64
2023/04/21 12:09:24;;;;;;;10.68;4.82;;;20.40;66.90;;;;;;4973929;28;20052;-63
2023/04/21 12:11:52;;;;;;;16.15;5.93;;;20.20;67.20;;;;;;4955579;28;20481;-65
2023/04/21 12:14:23;;;;;;;11.82;5.55;;;20.30;67.40;;;;;;4954355;28;20047;-64
2023/04/21 12:16:54;;;;;;;16.95;5.85;;;20.50;67.00;;;;;;4950757;28;20053;-62
2023/04/21 12:19:36;;;;;;;14.30;5.50;;;20.70;68.60;;;;;;4948321;28;20609;-61
2023/04/21 12:22:10;;;;;;;14.98;6.10;;;20.90;68.50;;;;;;4949297;28;20039;-61
2023/04/21 12:24:36;;;;;;;16.20;6.43;;;20.70;67.40;;;;;;4947799;28;20054;-60
2023/04/21 12:27:02;;;;;;;18.50;6.10;;;20.50;68.10;;;;;;4963150;28;20042;-61
2023/04/21 12:29:28;;;;;;;13.77;6.00;;;20.50;69.00;;;;;;4953780;28;20048;-60
2023/04/21 12:31:54;;;;;;;10.38;5.60;;;20.50;69.60;;;;;;4962369;28;20042;-60
2023/04/21 12:34:19;;;;;;;13.68;5.60;;;20.60;69.00;;;;;;4974193;28;20388;-62
2023/04/21 12:36:45;;;;;;;14.20;5.53;;;20.60;69.90;;;;;;4951711;28;20065;-60
2023/04/21 12:39:12;;;;;;;14.93;5.80;;;21.00;70.00;;;;;;4974255;28;20042;-61
2023/04/21 12:41:38;;;;;;;12.85;5.95;;;21.10;68.40;;;;;;4910088;28;20426;-62